sensor_id;sensor_type;location;lat;lon;timestamp;P1;durP1;ratioP1;P2;durP2;ratioP2
61756;SDS011;57225;61.460;24.060;2023-10-13T00:01:12;4.43;;;0.77;;
61756;SDS011;57225;61.460;24.060;2023-10-13T00:03:57;6.75;;;0.80;;
61756;SDS011;57225;61.460;24.060;2023-10-13T00:06:41;3.30;;;0.68;;
61756;SDS011;57225;61.460;24.060;2023-10-13T00:09:26;1.98;;;0.65;;
61756;SDS011;57225;61.460;24.060;2023-10-13T00:12:31;5.65;;;0.80;;
61756;SDS011;57225;61.460;24.060;2023-10-13T00:15:18;4.10;;;0.73;;
61756;SDS011;57225;61.460;24.060;2023-10-13T00:18:11;3.45;;;0.60;;
61756;SDS011;57225;61.460;24.060;2023-10-13T00:20:56;2.72;;;0.68;;
61756;SDS011;57225;61.460;24.060;2023-10-13T00:23:44;4.28;;;0.43;;
61756;SDS011;57225;61.460;24.060;2023-10-13T00:26:37;8.55;;;0.60;;
61756;SDS011;57225;61.460;24.060;2023-10-13T00:29:21;1.45;;;0.50;;
61756;SDS011;57225;61.460;24.060;2023-10-13T00:32:13;3.95;;;0.30;;
61756;SDS011;57225;61.460;24.060;2023-10-13T00:34:59;4.35;;;0.43;;
61756;SDS011;57225;61.460;24.060;2023-10-13T00:40:37;3.70;;;0.60;;
61756;SDS011;57225;61.460;24.060;2023-10-13T00:43:22;4.63;;;0.50;;
61756;SDS011;57225;61.460;24.060;2023-10-13T00:46:07;2.28;;;0.50;;
61756;SDS011;57225;61.460;24.060;2023-10-13T00:48:51;2.15;;;0.30;;
61756;SDS011;57225;61.460;24.060;2023-10-13T00:51:36;4.05;;;0.50;;
61756;SDS011;57225;61.460;24.060;2023-10-13T00:54:24;2.15;;;0.40;;
61756;SDS011;57225;61.460;24.060;2023-10-13T00:57:10;3.22;;;0.40;;
61756;SDS011;57225;61.460;24.060;2023-10-13T01:00:10;2.08;;;0.22;;
61756;SDS011;57225;61.460;24.060;2023-10-13T01:03:09;3.38;;;0.55;;
61756;SDS011;57225;61.460;24.060;2023-10-13T01:05:54;1.20;;;0.50;;
61756;SDS011;57225;61.460;24.060;2023-10-13T01:08:39;2.55;;;0.50;;
61756;SDS011;57225;61.460;24.060;2023-10-13T01:11:27;3.60;;;0.40;;
61756;SDS011;57225;61.460;24.060;2023-10-13T01:14:14;2.20;;;0.32;;
61756;SDS011;57225;61.460;24.060;2023-10-13T01:17:02;3.25;;;0.50;;
61756;SDS011;57225;61.460;24.060;2023-10-13T01:19:48;3.83;;;0.60;;
61756;SDS011;57225;61.460;24.060;2023-10-13T01:22:32;1.77;;;0.57;;
61756;SDS011;57225;61.460;24.060;2023-10-13T01:25:17;1.92;;;0.40;;
61756;SDS011;57225;61.460;24.060;2023-10-13T01:28:03;2.25;;;0.47;;
61756;SDS011;57225;61.460;24.060;2023-10-13T01:30:50;4.05;;;0.50;;
61756;SDS011;57225;61.460;24.060;2023-10-13T01:33:34;1.77;;;0.40;;
61756;SDS011;57225;61.460;24.060;2023-10-13T01:36:19;0.90;;;0.35;;
61756;SDS011;57225;61.460;24.060;2023-10-13T01:39:04;6.95;;;0.63;;
61756;SDS011;57225;61.460;24.060;2023-10-13T01:41:49;4.22;;;0.80;;
61756;SDS011;57225;61.460;24.060;2023-10-13T01:44:39;2.25;;;0.52;;
61756;SDS011;57225;61.460;24.060;2023-10-13T01:47:23;2.63;;;0.55;;
61756;SDS011;57225;61.460;24.060;2023-10-13T01:50:08;8.35;;;0.60;;
61756;SDS011;57225;61.460;24.060;2023-10-13T01:53:04;8.88;;;0.57;;
61756;SDS011;57225;61.460;24.060;2023-10-13T01:56:01;7.57;;;0.70;;
61756;SDS011;57225;61.460;24.060;2023-10-13T01:58:49;3.47;;;0.60;;
61756;SDS011;57225;61.460;24.060;2023-10-13T02:01:33;3.67;;;0.30;;
61756;SDS011;57225;61.460;24.060;2023-10-13T02:04:18;6.47;;;0.68;;
61756;SDS011;57225;61.460;24.060;2023-10-13T02:07:04;1.52;;;0.40;;
61756;SDS011;57225;61.460;24.060;2023-10-13T02:09:52;2.57;;;0.50;;
61756;SDS011;57225;61.460;24.060;2023-10-13T02:12:39;7.82;;;0.93;;
61756;SDS011;57225;61.460;24.060;2023-10-13T02:15:27;2.13;;;0.40;;
61756;SDS011;57225;61.460;24.060;2023-10-13T02:18:18;5.85;;;1.15;;
61756;SDS011;57225;61.460;24.060;2023-10-13T02:21:10;1.85;;;0.30;;
61756;SDS011;57225;61.460;24.060;2023-10-13T02:24:00;5.88;;;0.50;;
61756;SDS011;57225;61.460;24.060;2023-10-13T02:26:46;2.00;;;0.55;;
61756;SDS011;57225;61.460;24.060;2023-10-13T02:29:31;2.08;;;0.35;;
61756;SDS011;57225;61.460;24.060;2023-10-13T02:32:23;4.63;;;0.70;;
61756;SDS011;57225;61.460;24.060;2023-10-13T02:35:07;1.25;;;0.32;;
61756;SDS011;57225;61.460;24.060;2023-10-13T02:37:53;1.63;;;0.30;;
61756;SDS011;57225;61.460;24.060;2023-10-13T02:40:39;5.22;;;0.90;;
61756;SDS011;57225;61.460;24.060;2023-10-13T02:43:24;3.35;;;0.55;;
61756;SDS011;57225;61.460;24.060;2023-10-13T02:46:08;2.65;;;0.50;;
61756;SDS011;57225;61.460;24.060;2023-10-13T02:48:53;2.83;;;0.40;;
61756;SDS011;57225;61.460;24.060;2023-10-13T02:51:37;1.00;;;0.30;;
61756;SDS011;57225;61.460;24.060;2023-10-13T02:54:25;0.70;;;0.40;;
61756;SDS011;57225;61.460;24.060;2023-10-13T03:00:01;2.75;;;0.60;;
61756;SDS011;57225;61.460;24.060;2023-10-13T03:03:00;2.47;;;0.47;;
61756;SDS011;57225;61.460;24.060;2023-10-13T03:05:45;6.47;;;0.75;;
61756;SDS011;57225;61.460;24.060;2023-10-13T03:08:29;5.13;;;0.52;;
61756;SDS011;57225;61.460;24.060;2023-10-13T03:11:17;4.03;;;0.50;;
61756;SDS011;57225;61.460;24.060;2023-10-13T03:14:05;6.97;;;0.70;;
61756;SDS011;57225;61.460;24.060;2023-10-13T03:16:51;5.28;;;0.55;;
61756;SDS011;57225;61.460;24.060;2023-10-13T03:19:36;2.10;;;0.68;;
61756;SDS011;57225;61.460;24.060;2023-10-13T03:22:23;2.47;;;0.47;;
61756;SDS011;57225;61.460;24.060;2023-10-13T03:25:14;2.60;;;0.65;;
61756;SDS011;57225;61.460;24.060;2023-10-13T03:28:08;5.97;;;0.60;;
61756;SDS011;57225;61.460;24.060;2023-10-13T03:30:57;3.08;;;0.60;;
61756;SDS011;57225;61.460;24.060;2023-10-13T03:33:46;2.78;;;0.43;;
61756;SDS011;57225;61.460;24.060;2023-10-13T03:36:30;5.15;;;0.52;;
61756;SDS011;57225;61.460;24.060;2023-10-13T03:39:33;4.18;;;0.60;;
61756;SDS011;57225;61.460;24.060;2023-10-13T03:42:18;1.45;;;0.60;;
61756;SDS011;57225;61.460;24.060;2023-10-13T03:45:02;4.65;;;0.60;;
61756;SDS011;57225;61.460;24.060;2023-10-13T03:47:54;6.20;;;0.90;;
61756;SDS011;57225;61.460;24.060;2023-10-13T03:50:39;3.33;;;0.52;;
61756;SDS011;57225;61.460;24.060;2023-10-13T03:53:32;3.13;;;0.40;;
61756;SDS011;57225;61.460;24.060;2023-10-13T03:56:17;1.27;;;0.50;;
61756;SDS011;57225;61.460;24.060;2023-10-13T03:59:10;3.35;;;0.50;;
61756;SDS011;57225;61.460;24.060;2023-10-13T04:02:01;2.20;;;0.60;;
61756;SDS011;57225;61.460;24.060;2023-10-13T04:04:50;2.40;;;0.40;;
61756;SDS011;57225;61.460;24.060;2023-10-13T04:07:37;5.22;;;0.60;;
61756;SDS011;57225;61.460;24.060;2023-10-13T04:10:44;1.63;;;0.52;;
61756;SDS011;57225;61.460;24.060;2023-10-13T04:13:28;2.38;;;0.60;;
61756;SDS011;57225;61.460;24.060;2023-10-13T04:16:31;4.03;;;0.77;;
61756;SDS011;57225;61.460;24.060;2023-10-13T04:19:20;4.17;;;0.60;;
61756;SDS011;57225;61.460;24.060;2023-10-13T04:22:07;3.22;;;0.57;;
61756;SDS011;57225;61.460;24.060;2023-10-13T04:24:58;4.88;;;0.80;;
61756;SDS011;57225;61.460;24.060;2023-10-13T04:28:06;1.52;;;0.47;;
61756;SDS011;57225;61.460;24.060;2023-10-13T04:30:57;3.42;;;0.52;;
61756;SDS011;57225;61.460;24.060;2023-10-13T04:33:42;2.05;;;0.60;;
61756;SDS011;57225;61.460;24.060;2023-10-13T04:36:36;4.43;;;0.70;;
61756;SDS011;57225;61.460;24.060;2023-10-13T04:39:28;1.25;;;0.30;;
61756;SDS011;57225;61.460;24.060;2023-10-13T04:42:18;4.28;;;0.65;;
61756;SDS011;57225;61.460;24.060;2023-10-13T04:45:10;2.17;;;0.68;;
61756;SDS011;57225;61.460;24.060;2023-10-13T04:48:15;2.58;;;0.50;;
61756;SDS011;57225;61.460;24.060;2023-10-13T04:51:02;4.40;;;0.70;;
61756;SDS011;57225;61.460;24.060;2023-10-13T04:54:15;12.10;;;0.80;;
61756;SDS011;57225;61.460;24.060;2023-10-13T04:57:09;6.13;;;0.85;;
61756;SDS011;57225;61.460;24.060;2023-10-13T05:00:04;2.58;;;0.70;;
61756;SDS011;57225;61.460;24.060;2023-10-13T05:02:55;3.17;;;0.90;;
61756;SDS011;57225;61.460;24.060;2023-10-13T05:05:59;6.15;;;0.80;;
61756;SDS011;57225;61.460;24.060;2023-10-13T05:08:57;7.45;;;0.95;;
61756;SDS011;57225;61.460;24.060;2023-10-13T05:12:00;1.75;;;0.75;;
61756;SDS011;57225;61.460;24.060;2023-10-13T05:15:04;4.55;;;0.65;;
61756;SDS011;57225;61.460;24.060;2023-10-13T05:18:07;4.10;;;0.82;;
61756;SDS011;57225;61.460;24.060;2023-10-13T05:21:10;3.50;;;0.68;;
61756;SDS011;57225;61.460;24.060;2023-10-13T05:24:13;3.47;;;0.65;;
61756;SDS011;57225;61.460;24.060;2023-10-13T05:27:15;1.80;;;0.70;;
61756;SDS011;57225;61.460;24.060;2023-10-13T05:30:18;3.83;;;1.05;;
61756;SDS011;57225;61.460;24.060;2023-10-13T05:33:21;2.08;;;0.80;;
61756;SDS011;57225;61.460;24.060;2023-10-13T05:36:24;4.00;;;1.27;;
61756;SDS011;57225;61.460;24.060;2023-10-13T05:39:27;5.65;;;0.82;;
61756;SDS011;57225;61.460;24.060;2023-10-13T05:42:30;3.95;;;0.90;;
61756;SDS011;57225;61.460;24.060;2023-10-13T05:45:34;1.63;;;0.68;;
61756;SDS011;57225;61.460;24.060;2023-10-13T05:48:44;3.90;;;0.70;;
61756;SDS011;57225;61.460;24.060;2023-10-13T05:51:44;4.30;;;0.65;;
61756;SDS011;57225;61.460;24.060;2023-10-13T05:54:52;4.28;;;0.75;;
61756;SDS011;57225;61.460;24.060;2023-10-13T05:57:54;5.50;;;1.65;;
61756;SDS011;57225;61.460;24.060;2023-10-13T06:00:58;3.50;;;1.00;;
61756;SDS011;57225;61.460;24.060;2023-10-13T06:04:01;8.90;;;1.42;;
61756;SDS011;57225;61.460;24.060;2023-10-13T06:07:04;4.60;;;1.17;;
61756;SDS011;57225;61.460;24.060;2023-10-13T06:10:07;11.32;;;1.30;;
61756;SDS011;57225;61.460;24.060;2023-10-13T06:13:12;6.95;;;1.10;;
61756;SDS011;57225;61.460;24.060;2023-10-13T06:16:15;5.55;;;0.88;;
61756;SDS011;57225;61.460;24.060;2023-10-13T06:19:19;2.42;;;0.60;;
61756;SDS011;57225;61.460;24.060;2023-10-13T06:22:22;2.70;;;0.40;;
61756;SDS011;57225;61.460;24.060;2023-10-13T06:25:25;1.27;;;0.52;;
61756;SDS011;57225;61.460;24.060;2023-10-13T06:28:28;5.95;;;0.57;;
61756;SDS011;57225;61.460;24.060;2023-10-13T06:31:24;2.72;;;0.85;;
61756;SDS011;57225;61.460;24.060;2023-10-13T06:34:09;2.20;;;0.60;;
61756;SDS011;57225;61.460;24.060;2023-10-13T06:36:59;1.75;;;0.50;;
61756;SDS011;57225;61.460;24.060;2023-10-13T06:39:43;2.92;;;0.60;;
61756;SDS011;57225;61.460;24.060;2023-10-13T06:42:30;1.50;;;0.50;;
61756;SDS011;57225;61.460;24.060;2023-10-13T06:45:18;4.45;;;0.68;;
61756;SDS011;57225;61.460;24.060;2023-10-13T06:48:03;3.38;;;0.50;;
61756;SDS011;57225;61.460;24.060;2023-10-13T06:50:48;3.78;;;0.77;;
61756;SDS011;57225;61.460;24.060;2023-10-13T06:53:35;1.77;;;0.50;;
61756;SDS011;57225;61.460;24.060;2023-10-13T06:56:21;2.25;;;0.63;;
61756;SDS011;57225;61.460;24.060;2023-10-13T06:59:12;3.88;;;0.88;;
61756;SDS011;57225;61.460;24.060;2023-10-13T07:01:57;5.97;;;0.95;;
61756;SDS011;57225;61.460;24.060;2023-10-13T07:04:48;3.13;;;0.52;;
61756;SDS011;57225;61.460;24.060;2023-10-13T07:07:41;3.92;;;0.60;;
61756;SDS011;57225;61.460;24.060;2023-10-13T07:10:25;6.05;;;0.80;;
61756;SDS011;57225;61.460;24.060;2023-10-13T07:13:14;3.15;;;0.68;;
61756;SDS011;57225;61.460;24.060;2023-10-13T07:16:00;3.13;;;0.80;;
61756;SDS011;57225;61.460;24.060;2023-10-13T07:18:49;4.75;;;0.55;;
61756;SDS011;57225;61.460;24.060;2023-10-13T07:21:37;4.60;;;0.80;;
61756;SDS011;57225;61.460;24.060;2023-10-13T07:24:29;1.77;;;0.70;;
61756;SDS011;57225;61.460;24.060;2023-10-13T07:27:23;4.20;;;0.80;;
61756;SDS011;57225;61.460;24.060;2023-10-13T07:30:08;7.25;;;0.60;;
61756;SDS011;57225;61.460;24.060;2023-10-13T07:32:55;8.70;;;0.80;;
61756;SDS011;57225;61.460;24.060;2023-10-13T07:35:43;5.32;;;0.85;;
61756;SDS011;57225;61.460;24.060;2023-10-13T07:38:28;7.20;;;0.60;;
61756;SDS011;57225;61.460;24.060;2023-10-13T07:41:15;4.55;;;0.60;;
61756;SDS011;57225;61.460;24.060;2023-10-13T07:44:21;4.85;;;0.73;;
61756;SDS011;57225;61.460;24.060;2023-10-13T07:47:18;4.85;;;1.00;;
61756;SDS011;57225;61.460;24.060;2023-10-13T07:50:04;6.43;;;0.90;;
61756;SDS011;57225;61.460;24.060;2023-10-13T07:52:53;2.80;;;0.70;;
61756;SDS011;57225;61.460;24.060;2023-10-13T07:55:49;6.75;;;1.52;;
61756;SDS011;57225;61.460;24.060;2023-10-13T07:58:40;5.43;;;2.50;;
61756;SDS011;57225;61.460;24.060;2023-10-13T08:01:36;8.07;;;1.48;;
61756;SDS011;57225;61.460;24.060;2023-10-13T08:04:26;4.70;;;0.90;;
61756;SDS011;57225;61.460;24.060;2023-10-13T08:07:12;4.00;;;0.80;;
61756;SDS011;57225;61.460;24.060;2023-10-13T08:09:57;6.20;;;0.93;;
61756;SDS011;57225;61.460;24.060;2023-10-13T08:12:43;7.95;;;1.08;;
61756;SDS011;57225;61.460;24.060;2023-10-13T08:15:27;7.93;;;0.80;;
61756;SDS011;57225;61.460;24.060;2023-10-13T08:18:17;4.93;;;0.82;;
61756;SDS011;57225;61.460;24.060;2023-10-13T08:21:14;2.67;;;0.90;;
61756;SDS011;57225;61.460;24.060;2023-10-13T08:24:02;7.55;;;1.42;;
61756;SDS011;57225;61.460;24.060;2023-10-13T08:29:59;9.25;;;1.23;;
61756;SDS011;57225;61.460;24.060;2023-10-13T08:33:23;8.65;;;1.35;;
61756;SDS011;57225;61.460;24.060;2023-10-13T08:36:09;3.97;;;1.00;;
61756;SDS011;57225;61.460;24.060;2023-10-13T08:39:11;12.82;;;1.10;;
61756;SDS011;57225;61.460;24.060;2023-10-13T08:42:22;6.68;;;1.25;;
61756;SDS011;57225;61.460;24.060;2023-10-13T08:45:37;8.07;;;1.42;;
61756;SDS011;57225;61.460;24.060;2023-10-13T08:48:23;9.00;;;1.50;;
61756;SDS011;57225;61.460;24.060;2023-10-13T08:51:15;7.75;;;0.90;;
61756;SDS011;57225;61.460;24.060;2023-10-13T08:54:15;7.57;;;1.00;;
61756;SDS011;57225;61.460;24.060;2023-10-13T08:57:17;3.53;;;1.10;;
61756;SDS011;57225;61.460;24.060;2023-10-13T09:00:16;4.35;;;0.88;;
61756;SDS011;57225;61.460;24.060;2023-10-13T09:03:32;5.55;;;1.17;;
61756;SDS011;57225;61.460;24.060;2023-10-13T09:06:36;6.93;;;1.00;;
61756;SDS011;57225;61.460;24.060;2023-10-13T09:09:21;4.88;;;0.82;;
61756;SDS011;57225;61.460;24.060;2023-10-13T09:12:19;4.97;;;1.10;;
61756;SDS011;57225;61.460;24.060;2023-10-13T09:15:17;3.10;;;0.60;;
61756;SDS011;57225;61.460;24.060;2023-10-13T09:18:33;7.50;;;0.82;;
61756;SDS011;57225;61.460;24.060;2023-10-13T09:21:39;2.83;;;0.65;;
61756;SDS011;57225;61.460;24.060;2023-10-13T09:24:24;4.78;;;0.70;;
61756;SDS011;57225;61.460;24.060;2023-10-13T09:27:14;5.05;;;0.82;;
61756;SDS011;57225;61.460;24.060;2023-10-13T09:29:59;2.88;;;0.57;;
61756;SDS011;57225;61.460;24.060;2023-10-13T09:33:02;5.30;;;0.90;;
61756;SDS011;57225;61.460;24.060;2023-10-13T09:35:52;4.30;;;0.68;;
61756;SDS011;57225;61.460;24.060;2023-10-13T09:38:38;3.83;;;0.65;;
61756;SDS011;57225;61.460;24.060;2023-10-13T09:41:27;3.08;;;0.57;;
61756;SDS011;57225;61.460;24.060;2023-10-13T09:44:22;4.32;;;0.70;;
61756;SDS011;57225;61.460;24.060;2023-10-13T09:47:20;5.70;;;0.93;;
61756;SDS011;57225;61.460;24.060;2023-10-13T09:50:14;4.40;;;0.70;;
61756;SDS011;57225;61.460;24.060;2023-10-13T09:53:07;9.70;;;0.75;;
61756;SDS011;57225;61.460;24.060;2023-10-13T09:55:55;7.75;;;0.60;;
61756;SDS011;57225;61.460;24.060;2023-10-13T09:58:51;17.15;;;0.85;;
61756;SDS011;57225;61.460;24.060;2023-10-13T10:01:41;1.25;;;0.50;;
61756;SDS011;57225;61.460;24.060;2023-10-13T10:04:41;6.57;;;0.88;;
61756;SDS011;57225;61.460;24.060;2023-10-13T10:07:39;2.53;;;0.60;;
61756;SDS011;57225;61.460;24.060;2023-10-13T10:10:25;5.13;;;0.50;;
61756;SDS011;57225;61.460;24.060;2023-10-13T10:13:52;2.38;;;0.38;;
61756;SDS011;57225;61.460;24.060;2023-10-13T10:19:52;6.82;;;1.25;;
61756;SDS011;57225;61.460;24.060;2023-10-13T10:22:40;3.70;;;0.55;;
61756;SDS011;57225;61.460;24.060;2023-10-13T10:25:32;1.70;;;0.50;;
61756;SDS011;57225;61.460;24.060;2023-10-13T10:28:21;3.75;;;0.30;;
61756;SDS011;57225;61.460;24.060;2023-10-13T10:31:06;4.20;;;0.70;;
61756;SDS011;57225;61.460;24.060;2023-10-13T10:33:56;7.00;;;1.08;;
61756;SDS011;57225;61.460;24.060;2023-10-13T10:36:40;9.40;;;0.57;;
61756;SDS011;57225;61.460;24.060;2023-10-13T10:39:36;1.80;;;0.47;;
61756;SDS011;57225;61.460;24.060;2023-10-13T10:42:30;9.27;;;1.00;;
61756;SDS011;57225;61.460;24.060;2023-10-13T10:45:15;6.40;;;0.90;;
61756;SDS011;57225;61.460;24.060;2023-10-13T10:48:05;4.22;;;0.75;;
61756;SDS011;57225;61.460;24.060;2023-10-13T10:51:01;1.70;;;0.47;;
61756;SDS011;57225;61.460;24.060;2023-10-13T10:53:53;2.88;;;0.73;;
61756;SDS011;57225;61.460;24.060;2023-10-13T10:56:40;7.93;;;1.17;;
61756;SDS011;57225;61.460;24.060;2023-10-13T10:59:25;2.53;;;0.65;;
61756;SDS011;57225;61.460;24.060;2023-10-13T11:02:12;2.60;;;0.60;;
61756;SDS011;57225;61.460;24.060;2023-10-13T11:05:02;1.33;;;0.52;;
61756;SDS011;57225;61.460;24.060;2023-10-13T11:07:49;5.03;;;0.60;;
61756;SDS011;57225;61.460;24.060;2023-10-13T11:10:34;5.53;;;0.60;;
61756;SDS011;57225;61.460;24.060;2023-10-13T11:13:22;3.47;;;0.85;;
61756;SDS011;57225;61.460;24.060;2023-10-13T11:16:07;4.57;;;0.60;;
61756;SDS011;57225;61.460;24.060;2023-10-13T11:19:01;2.22;;;0.45;;
61756;SDS011;57225;61.460;24.060;2023-10-13T11:21:49;3.67;;;0.68;;
61756;SDS011;57225;61.460;24.060;2023-10-13T11:24:39;2.10;;;0.50;;
61756;SDS011;57225;61.460;24.060;2023-10-13T11:27:28;0.80;;;0.35;;
61756;SDS011;57225;61.460;24.060;2023-10-13T11:30:28;6.97;;;1.38;;
61756;SDS011;57225;61.460;24.060;2023-10-13T11:33:25;4.68;;;0.65;;
61756;SDS011;57225;61.460;24.060;2023-10-13T11:36:12;1.45;;;0.60;;
61756;SDS011;57225;61.460;24.060;2023-10-13T11:39:01;2.60;;;0.60;;
61756;SDS011;57225;61.460;24.060;2023-10-13T11:41:45;4.88;;;0.60;;
61756;SDS011;57225;61.460;24.060;2023-10-13T11:44:37;5.25;;;0.50;;
61756;SDS011;57225;61.460;24.060;2023-10-13T11:47:26;0.75;;;0.43;;
61756;SDS011;57225;61.460;24.060;2023-10-13T11:50:31;2.90;;;0.70;;
61756;SDS011;57225;61.460;24.060;2023-10-13T11:53:17;1.50;;;0.40;;
61756;SDS011;57225;61.460;24.060;2023-10-13T11:56:02;7.47;;;0.60;;
61756;SDS011;57225;61.460;24.060;2023-10-13T11:58:53;2.97;;;0.43;;
61756;SDS011;57225;61.460;24.060;2023-10-13T12:01:38;3.90;;;0.82;;
61756;SDS011;57225;61.460;24.060;2023-10-13T12:04:41;1.30;;;0.40;;
61756;SDS011;57225;61.460;24.060;2023-10-13T12:07:35;4.43;;;0.60;;
61756;SDS011;57225;61.460;24.060;2023-10-13T12:10:35;1.55;;;0.40;;
61756;SDS011;57225;61.460;24.060;2023-10-13T12:13:33;5.88;;;0.98;;
61756;SDS011;57225;61.460;24.060;2023-10-13T12:16:17;1.80;;;0.30;;
61756;SDS011;57225;61.460;24.060;2023-10-13T12:19:03;6.55;;;0.85;;
61756;SDS011;57225;61.460;24.060;2023-10-13T12:21:55;4.25;;;0.40;;
61756;SDS011;57225;61.460;24.060;2023-10-13T12:27:26;2.25;;;0.38;;
61756;SDS011;57225;61.460;24.060;2023-10-13T12:30:19;2.03;;;0.57;;
61756;SDS011;57225;61.460;24.060;2023-10-13T12:33:19;6.95;;;0.60;;
61756;SDS011;57225;61.460;24.060;2023-10-13T12:36:12;2.88;;;0.52;;
61756;SDS011;57225;61.460;24.060;2023-10-13T12:39:05;3.25;;;0.40;;
61756;SDS011;57225;61.460;24.060;2023-10-13T12:41:52;1.58;;;0.82;;
61756;SDS011;57225;61.460;24.060;2023-10-13T12:44:55;2.75;;;0.70;;
61756;SDS011;57225;61.460;24.060;2023-10-13T12:47:58;4.13;;;0.40;;
61756;SDS011;57225;61.460;24.060;2023-10-13T12:51:01;2.72;;;0.43;;
61756;SDS011;57225;61.460;24.060;2023-10-13T12:54:03;4.15;;;0.90;;
61756;SDS011;57225;61.460;24.060;2023-10-13T12:57:04;3.55;;;0.57;;
61756;SDS011;57225;61.460;24.060;2023-10-13T12:59:53;4.72;;;0.52;;
61756;SDS011;57225;61.460;24.060;2023-10-13T13:02:38;2.55;;;0.40;;
61756;SDS011;57225;61.460;24.060;2023-10-13T13:05:23;1.98;;;0.60;;
61756;SDS011;57225;61.460;24.060;2023-10-13T13:08:12;1.10;;;0.40;;
61756;SDS011;57225;61.460;24.060;2023-10-13T13:11:06;2.10;;;0.80;;
61756;SDS011;57225;61.460;24.060;2023-10-13T13:14:09;3.15;;;0.40;;
61756;SDS011;57225;61.460;24.060;2023-10-13T13:16:53;2.88;;;0.50;;
61756;SDS011;57225;61.460;24.060;2023-10-13T13:19:38;4.97;;;0.47;;
61756;SDS011;57225;61.460;24.060;2023-10-13T13:22:23;3.28;;;0.40;;
61756;SDS011;57225;61.460;24.060;2023-10-13T13:25:07;3.53;;;0.50;;
61756;SDS011;57225;61.460;24.060;2023-10-13T13:27:54;1.67;;;0.50;;
61756;SDS011;57225;61.460;24.060;2023-10-13T13:30:40;1.33;;;0.30;;
61756;SDS011;57225;61.460;24.060;2023-10-13T13:33:24;1.48;;;0.47;;
61756;SDS011;57225;61.460;24.060;2023-10-13T13:36:10;6.28;;;0.60;;
61756;SDS011;57225;61.460;24.060;2023-10-13T13:38:59;4.05;;;0.60;;
61756;SDS011;57225;61.460;24.060;2023-10-13T13:41:44;5.30;;;0.85;;
61756;SDS011;57225;61.460;24.060;2023-10-13T13:44:28;7.78;;;0.85;;
61756;SDS011;57225;61.460;24.060;2023-10-13T13:47:13;9.98;;;0.90;;
61756;SDS011;57225;61.460;24.060;2023-10-13T13:49:57;2.33;;;0.57;;
61756;SDS011;57225;61.460;24.060;2023-10-13T13:52:42;5.00;;;0.82;;
61756;SDS011;57225;61.460;24.060;2023-10-13T13:55:33;5.07;;;0.70;;
61756;SDS011;57225;61.460;24.060;2023-10-13T13:58:17;8.13;;;0.97;;
61756;SDS011;57225;61.460;24.060;2023-10-13T14:01:02;3.33;;;0.82;;
61756;SDS011;57225;61.460;24.060;2023-10-13T14:03:56;4.00;;;0.80;;
61756;SDS011;57225;61.460;24.060;2023-10-13T14:06:46;2.85;;;0.90;;
61756;SDS011;57225;61.460;24.060;2023-10-13T14:09:30;1.75;;;0.50;;
61756;SDS011;57225;61.460;24.060;2023-10-13T14:12:23;6.07;;;1.20;;
61756;SDS011;57225;61.460;24.060;2023-10-13T14:15:19;2.38;;;0.60;;
61756;SDS011;57225;61.460;24.060;2023-10-13T14:18:07;6.22;;;0.80;;
61756;SDS011;57225;61.460;24.060;2023-10-13T14:20:57;6.65;;;1.05;;
61756;SDS011;57225;61.460;24.060;2023-10-13T14:23:48;5.68;;;0.90;;
61756;SDS011;57225;61.460;24.060;2023-10-13T14:26:33;5.43;;;0.75;;
61756;SDS011;57225;61.460;24.060;2023-10-13T14:29:19;1.88;;;0.50;;
61756;SDS011;57225;61.460;24.060;2023-10-13T14:32:03;4.72;;;0.90;;
61756;SDS011;57225;61.460;24.060;2023-10-13T14:34:47;3.70;;;1.00;;
61756;SDS011;57225;61.460;24.060;2023-10-13T14:37:37;7.40;;;0.73;;
61756;SDS011;57225;61.460;24.060;2023-10-13T14:40:22;2.47;;;0.65;;
61756;SDS011;57225;61.460;24.060;2023-10-13T14:43:06;6.13;;;0.88;;
61756;SDS011;57225;61.460;24.060;2023-10-13T14:45:55;4.13;;;0.60;;
61756;SDS011;57225;61.460;24.060;2023-10-13T14:48:39;3.40;;;0.77;;
61756;SDS011;57225;61.460;24.060;2023-10-13T14:51:24;5.38;;;1.15;;
61756;SDS011;57225;61.460;24.060;2023-10-13T14:54:09;5.00;;;0.60;;
61756;SDS011;57225;61.460;24.060;2023-10-13T14:56:53;3.17;;;0.60;;
61756;SDS011;57225;61.460;24.060;2023-10-13T14:59:40;3.65;;;0.60;;
61756;SDS011;57225;61.460;24.060;2023-10-13T15:02:24;7.07;;;1.55;;
61756;SDS011;57225;61.460;24.060;2023-10-13T15:05:12;2.08;;;0.70;;
61756;SDS011;57225;61.460;24.060;2023-10-13T15:08:00;4.05;;;0.90;;
61756;SDS011;57225;61.460;24.060;2023-10-13T15:10:47;4.05;;;0.75;;
61756;SDS011;57225;61.460;24.060;2023-10-13T15:13:31;4.78;;;0.75;;
61756;SDS011;57225;61.460;24.060;2023-10-13T15:16:16;3.90;;;1.23;;
61756;SDS011;57225;61.460;24.060;2023-10-13T15:19:02;5.03;;;1.20;;
61756;SDS011;57225;61.460;24.060;2023-10-13T15:21:50;4.43;;;0.85;;
61756;SDS011;57225;61.460;24.060;2023-10-13T15:24:36;5.28;;;1.00;;
61756;SDS011;57225;61.460;24.060;2023-10-13T15:27:28;4.65;;;1.40;;
61756;SDS011;57225;61.460;24.060;2023-10-13T15:30:13;4.35;;;1.85;;
61756;SDS011;57225;61.460;24.060;2023-10-13T15:33:09;2.88;;;1.48;;
61756;SDS011;57225;61.460;24.060;2023-10-13T15:35:55;4.95;;;1.90;;
61756;SDS011;57225;61.460;24.060;2023-10-13T15:38:40;7.95;;;2.38;;
61756;SDS011;57225;61.460;24.060;2023-10-13T15:41:27;6.03;;;2.95;;
61756;SDS011;57225;61.460;24.060;2023-10-13T15:47:18;6.43;;;2.13;;
61756;SDS011;57225;61.460;24.060;2023-10-13T15:50:02;5.82;;;1.60;;
61756;SDS011;57225;61.460;24.060;2023-10-13T15:52:47;8.63;;;1.55;;
61756;SDS011;57225;61.460;24.060;2023-10-13T15:55:35;6.55;;;1.30;;
61756;SDS011;57225;61.460;24.060;2023-10-13T15:58:20;4.18;;;1.40;;
61756;SDS011;57225;61.460;24.060;2023-10-13T16:01:05;11.13;;;1.20;;
61756;SDS011;57225;61.460;24.060;2023-10-13T16:03:51;4.38;;;0.82;;
61756;SDS011;57225;61.460;24.060;2023-10-13T16:06:38;5.25;;;0.77;;
61756;SDS011;57225;61.460;24.060;2023-10-13T16:09:30;3.65;;;0.85;;
61756;SDS011;57225;61.460;24.060;2023-10-13T16:12:18;2.13;;;0.65;;
61756;SDS011;57225;61.460;24.060;2023-10-13T16:15:02;8.88;;;0.68;;
61756;SDS011;57225;61.460;24.060;2023-10-13T16:17:49;2.10;;;0.80;;
61756;SDS011;57225;61.460;24.060;2023-10-13T16:20:37;4.72;;;0.70;;
61756;SDS011;57225;61.460;24.060;2023-10-13T16:23:23;3.00;;;0.77;;
61756;SDS011;57225;61.460;24.060;2023-10-13T16:26:08;1.80;;;0.65;;
61756;SDS011;57225;61.460;24.060;2023-10-13T16:28:52;1.33;;;0.70;;
61756;SDS011;57225;61.460;24.060;2023-10-13T16:31:41;2.65;;;0.93;;
61756;SDS011;57225;61.460;24.060;2023-10-13T16:34:29;4.18;;;1.40;;
61756;SDS011;57225;61.460;24.060;2023-10-13T16:37:13;2.03;;;0.85;;
61756;SDS011;57225;61.460;24.060;2023-10-13T16:40:00;2.40;;;0.90;;
61756;SDS011;57225;61.460;24.060;2023-10-13T16:42:49;5.25;;;1.30;;
61756;SDS011;57225;61.460;24.060;2023-10-13T16:45:36;3.35;;;0.95;;
61756;SDS011;57225;61.460;24.060;2023-10-13T16:48:20;3.28;;;0.88;;
61756;SDS011;57225;61.460;24.060;2023-10-13T16:51:05;3.42;;;0.70;;
61756;SDS011;57225;61.460;24.060;2023-10-13T16:53:56;3.85;;;1.10;;
61756;SDS011;57225;61.460;24.060;2023-10-13T16:56:42;2.45;;;0.70;;
61756;SDS011;57225;61.460;24.060;2023-10-13T16:59:27;3.95;;;1.00;;
61756;SDS011;57225;61.460;24.060;2023-10-13T17:02:11;2.78;;;0.85;;
61756;SDS011;57225;61.460;24.060;2023-10-13T17:04:58;4.15;;;0.82;;
61756;SDS011;57225;61.460;24.060;2023-10-13T17:07:42;4.95;;;1.42;;
61756;SDS011;57225;61.460;24.060;2023-10-13T17:10:35;5.05;;;1.10;;